Time;durP1;ratioP1;P1;durP2;ratioP2;P2;SDS_P1;SDS_P2;PMS_P1;PMS_P2;Temp;Humidity;BMP_temperature;BMP_pressure;BME280_temperature;BME280_humidity;BME280_pressure;Samples;Min_cycle;Max_cycle;Signal;HPM_P1;HPM_P2
2023/06/22 00:03:45;;;;;;;;;;;20.00;99.90;;;;;;8427009;28;19924;-72
2023/06/22 00:12:50;;;;;;;;;;;19.90;99.90;;;;;;8408337;28;19954;-73
2023/06/22 00:26:58;;;;;;;;;;;19.70;99.90;;;;;;8409336;28;20081;-72
2023/06/22 00:31:00;;;;;;;;;;;19.70;99.90;;;;;;8415319;28;19932;-72
2023/06/22 00:35:02;;;;;;;;;;;19.60;99.90;;;;;;8417814;28;19939;-72
2023/06/22 00:39:05;;;;;;;;;;;19.60;99.90;;;;;;8391954;28;19950;-72
2023/06/22 00:43:06;;;;;;;;;;;19.60;99.90;;;;;;8406762;28;19928;-72
2023/06/22 00:47:08;;;;;;;;;;;19.60;99.90;;;;;;8416558;28;20309;-72
2023/06/22 00:51:10;;;;;;;;;;;19.50;99.90;;;;;;8413615;28;19924;-72
2023/06/22 00:55:12;;;;;;;;;;;19.40;99.90;;;;;;8394795;28;19928;-72
2023/06/22 00:59:17;;;;;;;;;;;19.40;99.90;;;;;;8401116;28;20288;-72
2023/06/22 01:03:20;;;;;;;;;;;19.40;99.90;;;;;;8419373;28;19924;-72
2023/06/22 01:07:31;;;;;;;;;;;19.30;99.90;;;;;;8398101;28;19931;-72
2023/06/22 01:11:38;;;;;;;;;;;19.30;99.90;;;;;;8422731;28;19932;-72
2023/06/22 01:15:43;;;;;;;;;;;19.20;99.90;;;;;;8385099;28;19939;-72
2023/06/22 01:19:54;;;;;;;;;;;19.20;99.90;;;;;;8425940;28;19932;-72
2023/06/22 01:24:06;;;;;;;;;;;19.10;99.90;;;;;;8421156;28;19924;-72
2023/06/22 01:28:15;;;;;;;;;;;19.00;99.90;;;;;;8395472;28;19940;-72
2023/06/22 01:32:17;;;;;;;;;;;19.00;99.90;;;;;;8425635;28;19953;-72
2023/06/22 01:36:19;;;;;;;;;;;19.00;99.90;;;;;;8422035;28;19956;-72
2023/06/22 01:40:21;;;;;;;;;;;18.90;99.90;;;;;;8375838;28;20357;-72
2023/06/22 01:44:24;;;;;;;;;;;18.90;99.90;;;;;;8387019;28;20312;-72
2023/06/22 01:48:26;;;;;;;;;;;18.80;99.90;;;;;;8385315;28;19933;-72
2023/06/22 01:52:28;;;;;;;;;;;18.70;99.90;;;;;;8368208;28;19925;-72
2023/06/22 01:56:29;;;;;;;;;;;18.70;99.90;;;;;;8369262;28;19925;-72
2023/06/22 02:00:33;;;;;;;;;;;18.70;99.90;;;;;;8396782;28;20296;-72
2023/06/22 02:04:37;;;;;;;;;;;18.70;99.90;;;;;;8361578;28;19975;-72
2023/06/22 02:08:47;;;;;;;;;;;18.60;99.90;;;;;;8382505;28;19925;-72
2023/06/22 02:12:50;;;;;;;;;;;18.60;99.90;;;;;;8376733;28;20395;-72
2023/06/22 02:16:52;;;;;;;;;;;18.60;99.90;;;;;;8386965;28;19924;-72
2023/06/22 02:20:53;;;;;;;;;;;18.60;99.90;;;;;;8380884;28;19932;-72
2023/06/22 02:24:55;;;;;;;;;;;18.60;99.90;;;;;;8374799;28;19927;-72
2023/06/22 02:28:57;;;;;;;;;;;18.60;99.90;;;;;;8371619;28;19933;-72
2023/06/22 02:32:59;;;;;;;;;;;18.50;99.90;;;;;;8378483;28;19951;-72
2023/06/22 02:37:02;;;;;;;;;;;18.50;99.90;;;;;;8397399;28;19932;-72
2023/06/22 02:41:04;;;;;;;;;;;18.40;99.90;;;;;;8418744;28;20390;-72
2023/06/22 02:45:06;;;;;;;;;;;18.40;99.90;;;;;;8420630;28;19978;-72
2023/06/22 02:49:07;;;;;;;;;;;18.30;99.90;;;;;;8421478;28;19924;-72
2023/06/22 02:53:09;;;;;;;;;;;18.30;99.90;;;;;;8417291;28;19931;-72
2023/06/22 02:57:13;;;;;;;;;;;18.20;99.90;;;;;;8413966;28;20379;-72
2023/06/22 03:01:15;;;;;;;;;;;18.20;99.90;;;;;;8393285;28;19924;-72
2023/06/22 03:05:18;;;;;;;;;;;18.20;99.90;;;;;;8419190;28;19967;-72
2023/06/22 03:09:19;;;;;;;;;;;18.20;99.90;;;;;;8412847;28;20307;-72
2023/06/22 03:13:21;;;;;;;;;;;18.10;99.90;;;;;;8396862;28;19947;-72
2023/06/22 03:17:23;;;;;;;;;;;18.10;99.90;;;;;;8415413;28;20371;-72
2023/06/22 03:21:27;;;;;;;;;;;18.10;99.90;;;;;;8395766;28;19925;-72
2023/06/22 03:25:28;;;;;;;;;;;18.00;99.90;;;;;;8412286;28;19928;-72
2023/06/22 03:29:30;;;;;;;;;;;18.00;99.90;;;;;;8412752;28;19924;-72
2023/06/22 03:33:32;;;;;;;;;;;18.00;99.90;;;;;;8408640;28;19923;-72
2023/06/22 03:37:34;;;;;;;;;;;18.00;99.90;;;;;;8397323;28;20913;-72
2023/06/22 03:41:35;;;;;;;;;;;18.00;99.90;;;;;;8400441;28;19928;-72
2023/06/22 03:45:37;;;;;;;;;;;18.00;99.90;;;;;;8397845;28;20291;-72
2023/06/22 03:49:39;;;;;;;;;;;18.00;99.90;;;;;;8400885;28;20291;-72
2023/06/22 03:53:41;;;;;;;;;;;18.00;99.90;;;;;;8431461;28;20416;-72
2023/06/22 03:57:42;;;;;;;;;;;18.00;99.90;;;;;;8444451;27;19928;-72
2023/06/22 04:01:44;;;;;;;;;;;18.10;99.90;;;;;;8431186;27;19931;-72
2023/06/22 04:05:46;;;;;;;;;;;18.10;99.90;;;;;;8423494;28;19946;-73
2023/06/22 04:09:48;;;;;;;;;;;18.20;99.90;;;;;;8429436;28;20363;-72
2023/06/22 04:13:51;;;;;;;;;;;18.20;99.90;;;;;;8393990;28;19927;-72
2023/06/22 04:17:54;;;;;;;;;;;18.20;99.90;;;;;;8411700;28;19950;-72
2023/06/22 04:21:56;;;;;;;;;;;18.30;99.90;;;;;;8416134;28;19925;-72
2023/06/22 04:25:59;;;;;;;;;;;18.40;99.90;;;;;;8419155;28;19952;-72
2023/06/22 04:30:01;;;;;;;;;;;18.40;99.90;;;;;;8412978;28;19969;-72
2023/06/22 04:34:06;;;;;;;;;;;18.40;99.90;;;;;;8401454;28;19932;-72
2023/06/22 04:38:08;;;;;;;;;;;18.40;99.90;;;;;;8406671;28;20197;-73
2023/06/22 04:42:10;;;;;;;;;;;18.40;99.90;;;;;;8402236;28;19947;-72
2023/06/22 04:46:11;;;;;;;;;;;18.50;99.90;;;;;;8413881;28;19924;-72
2023/06/22 04:50:13;;;;;;;;;;;18.50;99.90;;;;;;8406592;28;19931;-72
2023/06/22 04:54:15;;;;;;;;;;;18.60;99.90;;;;;;8409828;28;20286;-73
2023/06/22 04:58:19;;;;;;;;;;;18.60;99.90;;;;;;8412370;28;19933;-72
2023/06/22 05:02:22;;;;;;;;;;;18.70;99.90;;;;;;8405371;28;19924;-72
2023/06/22 05:06:24;;;;;;;;;;;18.80;99.90;;;;;;8391738;28;20014;-72
2023/06/22 05:10:26;;;;;;;;;;;19.00;99.90;;;;;;8420615;28;19924;-72
2023/06/22 05:14:29;;;;;;;;;;;19.00;99.90;;;;;;8425944;28;19928;-72
2023/06/22 05:18:31;;;;;;;;;;;19.20;99.90;;;;;;8404322;28;19931;-72
2023/06/22 05:22:33;;;;;;;;;;;19.30;99.90;;;;;;8432279;28;19924;-72
2023/06/22 05:26:34;;;;;;;;;;;19.40;99.90;;;;;;8386630;28;20427;-72
2023/06/22 05:30:36;;;;;;;;;;;19.50;99.90;;;;;;8445118;28;19925;-72
2023/06/22 05:34:38;;;;;;;;;;;19.70;99.90;;;;;;8397197;28;19932;-72
2023/06/22 05:38:40;;;;;;;;;;;19.80;99.90;;;;;;8420275;28;20235;-72
2023/06/22 05:42:41;;;;;;;;;;;19.90;99.90;;;;;;8409573;28;20333;-72
2023/06/22 05:46:48;;;;;;;;;;;20.00;99.90;;;;;;8423459;28;19932;-72
2023/06/22 05:50:49;;;;;;;;;;;20.10;99.90;;;;;;8423515;28;20057;-72
2023/06/22 05:54:51;;;;;;;;;;;20.10;99.90;;;;;;8424646;28;19925;-72
2023/06/22 05:58:53;;;;;;;;;;;20.20;99.90;;;;;;8423883;28;20283;-72
2023/06/22 06:02:54;;;;;;;;;;;20.40;99.90;;;;;;8422458;28;19931;-72
2023/06/22 06:06:57;;;;;;;;;;;20.50;99.90;;;;;;8449027;28;20317;-72
2023/06/22 06:10:58;;;;;;;;;;;20.70;99.90;;;;;;8432557;28;19935;-72
2023/06/22 06:15:00;;;;;;;;;;;20.80;99.90;;;;;;8421430;28;19932;-72
2023/06/22 06:19:02;;;;;;;;;;;21.00;99.90;;;;;;8425474;28;19973;-72
2023/06/22 06:23:03;;;;;;;;;;;21.10;99.90;;;;;;8407079;28;20330;-72
2023/06/22 06:27:05;;;;;;;;;;;21.20;99.90;;;;;;8445286;28;20283;-73
2023/06/22 06:31:08;;;;;;;;;;;21.30;99.90;;;;;;8418934;28;19931;-72
2023/06/22 06:35:11;;;;;;;;;;;21.40;99.90;;;;;;8437259;28;19958;-72
2023/06/22 06:39:12;;;;;;;;;;;21.50;99.90;;;;;;8426020;28;19925;-72
2023/06/22 06:43:14;;;;;;;;;;;21.60;99.90;;;;;;8439382;28;19924;-72
2023/06/22 06:47:16;;;;;;;;;;;21.60;99.90;;;;;;8438891;28;19924;-72
2023/06/22 06:51:18;;;;;;;;;;;21.70;99.90;;;;;;8438899;28;19927;-72
2023/06/22 06:55:20;;;;;;;;;;;21.80;99.90;;;;;;8426842;28;19931;-72
2023/06/22 06:59:22;;;;;;;;;;;22.00;99.90;;;;;;8444871;28;19931;-72
2023/06/22 07:03:23;;;;;;;;;;;22.00;99.90;;;;;;8430033;28;19924;-72
2023/06/22 07:07:25;;;;;;;;;;;22.00;99.90;;;;;;8416470;28;19924;-72
2023/06/22 07:11:27;;;;;;;;;;;22.00;99.90;;;;;;8408531;28;19924;-72
2023/06/22 07:15:28;;;;;;;;;;;22.00;99.90;;;;;;8444566;27;19928;-72
2023/06/22 07:19:31;;;;;;;;;;;22.10;99.90;;;;;;8421011;28;19924;-72
2023/06/22 07:23:33;;;;;;;;;;;22.20;99.90;;;;;;8424567;28;19932;-72
2023/06/22 07:27:39;;;;;;;;;;;22.30;99.90;;;;;;8416181;28;19929;-73
2023/06/22 07:31:41;;;;;;;;;;;22.40;99.90;;;;;;8422844;28;19928;-72
2023/06/22 07:35:44;;;;;;;;;;;22.50;99.90;;;;;;8404443;28;19924;-72
2023/06/22 07:39:45;;;;;;;;;;;22.60;99.90;;;;;;8410308;28;19924;-73
2023/06/22 07:43:47;;;;;;;;;;;22.70;99.90;;;;;;8422207;28;19931;-72
2023/06/22 07:47:49;;;;;;;;;;;22.80;99.90;;;;;;8409986;28;19941;-72
2023/06/22 07:51:51;;;;;;;;;;;22.90;99.90;;;;;;8435362;28;19977;-72
2023/06/22 07:55:53;;;;;;;;;;;22.90;99.90;;;;;;8431770;28;19969;-73
2023/06/22 07:59:54;;;;;;;;;;;23.00;99.90;;;;;;8446619;27;20299;-72
2023/06/22 08:03:56;;;;;;;;;;;23.10;99.90;;;;;;8447246;28;20371;-72
2023/06/22 08:07:58;;;;;;;;;;;23.20;99.90;;;;;;8454767;27;19978;-73
2023/06/22 08:11:59;;;;;;;;;;;23.30;99.90;;;;;;8432646;28;19932;-73
2023/06/22 08:16:01;;;;;;;;;;;23.30;99.90;;;;;;8423864;28;20325;-73
2023/06/22 08:20:09;;;;;;;;;;;23.40;99.90;;;;;;8438481;28;20256;-72
2023/06/22 08:24:11;;;;;;;;;;;23.50;99.90;;;;;;8423656;28;20366;-73
2023/06/22 08:28:13;;;;;;;;;;;23.50;99.90;;;;;;8427492;28;19925;-73
2023/06/22 08:32:14;;;;;;;;;;;23.60;99.90;;;;;;8425146;28;20298;-72
2023/06/22 08:36:16;;;;;;;;;;;23.60;99.90;;;;;;8428862;28;19924;-73
2023/06/22 08:40:19;;;;;;;;;;;23.60;99.90;;;;;;8433732;28;19924;-72
2023/06/22 08:44:21;;;;;;;;;;;23.60;99.90;;;;;;8437931;28;20310;-72
2023/06/22 08:48:22;;;;;;;;;;;23.70;99.90;;;;;;8434226;28;19924;-72
2023/06/22 08:52:24;;;;;;;;;;;23.80;99.90;;;;;;8417997;28;19925;-72
2023/06/22 08:56:26;;;;;;;;;;;23.80;99.90;;;;;;8433947;27;19950;-72
2023/06/22 09:00:29;;;;;;;;;;;23.90;99.90;;;;;;8417489;28;19924;-72
2023/06/22 09:04:34;;;;;;;;;;;23.90;99.90;;;;;;8451221;27;20361;-72
2023/06/22 09:08:36;;;;;;;;;;;23.90;99.90;;;;;;8427397;28;19928;-72
2023/06/22 09:12:39;;;;;;;;;;;23.90;99.90;;;;;;8403606;28;19924;-72
2023/06/22 09:16:40;;;;;;;;;;;23.90;99.90;;;;;;8421961;28;19931;-72
2023/06/22 09:20:42;;;;;;;;;;;23.90;99.90;;;;;;8430020;28;19924;-72
2023/06/22 09:24:44;;;;;;;;;;;24.00;99.90;;;;;;8433922;27;19924;-72
2023/06/22 09:28:45;;;;;;;;;;;24.00;99.90;;;;;;8413350;28;19933;-72
2023/06/22 09:32:47;;;;;;;;;;;24.00;99.90;;;;;;8416227;28;19924;-72
2023/06/22 09:36:49;;;;;;;;;;;24.00;99.90;;;;;;8407724;28;20066;-72
2023/06/22 09:40:51;;;;;;;;;;;24.10;99.90;;;;;;8412846;28;20307;-72
2023/06/22 09:44:52;;;;;;;;;;;24.10;99.90;;;;;;8422729;28;19924;-72
2023/06/22 09:48:54;;;;;;;;;;;24.10;99.90;;;;;;8420441;28;19925;-72
2023/06/22 09:52:55;;;;;;;;;;;24.20;99.90;;;;;;8420727;28;19928;-72
2023/06/22 09:56:57;;;;;;;;;;;24.20;99.90;;;;;;8432318;27;19924;-72
2023/06/22 10:00:59;;;;;;;;;;;24.20;99.90;;;;;;8431247;28;19937;-73
2023/06/22 10:05:01;;;;;;;;;;;24.20;99.90;;;;;;8438351;28;19924;-72
2023/06/22 10:09:02;;;;;;;;;;;24.10;99.90;;;;;;8418591;28;19976;-72
2023/06/22 10:13:11;;;;;;;;;;;24.10;99.90;;;;;;8437725;28;20367;-73
2023/06/22 10:17:13;;;;;;;;;;;24.10;99.90;;;;;;8426773;28;19930;-72
2023/06/22 10:21:15;;;;;;;;;;;24.00;99.90;;;;;;8427056;28;19924;-72
2023/06/22 10:25:17;;;;;;;;;;;24.00;99.90;;;;;;8431364;28;20260;-73
2023/06/22 10:29:20;;;;;;;;;;;24.00;99.90;;;;;;8439720;28;19939;-72
2023/06/22 10:33:22;;;;;;;;;;;24.00;99.90;;;;;;8431815;28;20029;-73
2023/06/22 10:37:23;;;;;;;;;;;24.00;99.90;;;;;;8407312;28;19924;-73
2023/06/22 10:41:25;;;;;;;;;;;24.00;99.90;;;;;;8419845;28;19947;-73
2023/06/22 10:45:27;;;;;;;;;;;24.00;99.90;;;;;;8433859;28;20280;-72
2023/06/22 10:49:30;;;;;;;;;;;24.00;99.90;;;;;;8415170;28;19967;-73
2023/06/22 10:53:31;;;;;;;;;;;24.00;99.90;;;;;;8416790;28;19947;-72
2023/06/22 10:57:33;;;;;;;;;;;24.00;99.90;;;;;;8404849;28;19942;-74
2023/06/22 11:01:36;;;;;;;;;;;24.00;99.90;;;;;;8423239;28;19928;-73
2023/06/22 11:05:38;;;;;;;;;;;24.00;99.90;;;;;;8376564;28;20016;-73
2023/06/22 11:09:39;;;;;;;;;;;24.00;99.90;;;;;;8421799;28;19929;-73
2023/06/22 11:13:41;;;;;;;;;;;24.00;99.90;;;;;;8413447;28;19971;-73
2023/06/22 11:17:43;;;;;;;;;;;24.00;99.90;;;;;;8409655;28;20379;-73
2023/06/22 11:21:44;;;;;;;;;;;24.00;99.90;;;;;;8406779;28;19928;-73
2023/06/22 11:25:46;;;;;;;;;;;24.00;99.90;;;;;;8417780;28;19931;-73
2023/06/22 11:29:48;;;;;;;;;;;24.10;99.90;;;;;;8424965;28;20391;-73
2023/06/22 11:33:49;;;;;;;;;;;24.10;99.90;;;;;;8418644;28;19932;-73
2023/06/22 11:37:51;;;;;;;;;;;24.10;99.90;;;;;;8429391;28;19931;-73
2023/06/22 11:41:53;;;;;;;;;;;24.20;99.90;;;;;;8443957;27;19930;-73
2023/06/22 11:45:56;;;;;;;;;;;24.20;99.90;;;;;;8423739;28;20026;-73
2023/06/22 11:49:57;;;;;;;;;;;24.20;99.90;;;;;;8425103;28;19932;-73
2023/06/22 11:53:59;;;;;;;;;;;24.30;99.90;;;;;;8430765;28;19969;-73
2023/06/22 11:58:03;;;;;;;;;;;24.30;99.90;;;;;;8430695;28;19950;-72
2023/06/22 12:02:07;;;;;;;;;;;24.30;99.90;;;;;;8424898;28;19934;-73
2023/06/22 12:06:09;;;;;;;;;;;24.30;99.90;;;;;;8417898;28;19924;-73
2023/06/22 12:10:10;;;;;;;;;;;24.30;99.90;;;;;;8431612;28;19924;-73
2023/06/22 12:14:12;;;;;;;;;;;24.30;99.90;;;;;;8421745;28;19954;-72
2023/06/22 12:18:14;;;;;;;;;;;24.30;99.90;;;;;;8425285;28;20327;-73
2023/06/22 12:22:16;;;;;;;;;;;24.30;99.90;;;;;;8422945;28;19924;-72
2023/06/22 12:26:18;;;;;;;;;;;24.30;99.90;;;;;;8425685;28;20260;-73
2023/06/22 12:30:19;;;;;;;;;;;24.30;99.90;;;;;;8418099;28;20364;-73
2023/06/22 12:34:21;;;;;;;;;;;24.30;99.90;;;;;;8424017;28;19924;-72
2023/06/22 12:38:25;;;;;;;;;;;24.20;99.90;;;;;;8421736;28;20851;-72
2023/06/22 12:42:28;;;;;;;;;;;24.10;99.90;;;;;;8442479;27;19925;-72
2023/06/22 12:46:36;;;;;;;;;;;24.00;99.90;;;;;;8427239;28;19932;-73
2023/06/22 12:50:38;;;;;;;;;;;23.90;99.90;;;;;;8430040;28;19950;-72
2023/06/22 12:54:39;;;;;;;;;;;23.90;99.90;;;;;;8413123;28;19928;-72
2023/06/22 12:58:54;;;;;;;;;;;23.80;99.90;;;;;;8435251;27;19970;-73
2023/06/22 13:02:56;;;;;;;;;;;23.70;99.90;;;;;;8412298;28;19924;-72
2023/06/22 13:06:58;;;;;;;;;;;23.60;99.90;;;;;;8425156;28;19934;-72
2023/06/22 13:10:59;;;;;;;;;;;23.60;99.90;;;;;;8428473;28;19928;-72
2023/06/22 13:15:03;;;;;;;;;;;23.50;99.90;;;;;;8417079;28;19935;-72
2023/06/22 13:19:04;;;;;;;;;;;23.40;99.90;;;;;;8421003;28;19925;-72
2023/06/22 13:23:06;;;;;;;;;;;23.40;99.90;;;;;;8415580;28;20295;-72
2023/06/22 13:27:08;;;;;;;;;;;23.30;99.90;;;;;;8433329;28;19989;-72
2023/06/22 13:31:09;;;;;;;;;;;23.30;99.90;;;;;;8412065;28;19928;-72
2023/06/22 13:35:11;;;;;;;;;;;23.20;99.90;;;;;;8432458;28;19977;-72
2023/06/22 13:39:13;;;;;;;;;;;23.20;99.90;;;;;;8409008;28;20026;-72
2023/06/22 13:43:15;;;;;;;;;;;23.10;99.90;;;;;;8418676;28;19925;-72
2023/06/22 13:47:17;;;;;;;;;;;23.10;99.90;;;;;;8437756;27;19931;-72
2023/06/22 13:51:19;;;;;;;;;;;23.10;99.90;;;;;;8420940;28;19924;-72
2023/06/22 13:55:20;;;;;;;;;;;23.00;99.90;;;;;;8430691;28;19932;-73
2023/06/22 13:59:22;;;;;;;;;;;23.00;99.90;;;;;;8424173;28;19924;-72
2023/06/22 14:03:24;;;;;;;;;;;23.00;99.90;;;;;;8435577;28;19951;-72
2023/06/22 14:07:27;;;;;;;;;;;23.10;99.90;;;;;;8410437;28;20265;-72
2023/06/22 14:11:29;;;;;;;;;;;23.10;99.90;;;;;;8422969;28;19940;-72
2023/06/22 14:15:30;;;;;;;;;;;23.10;99.90;;;;;;8408924;28;19928;-72
2023/06/22 14:19:32;;;;;;;;;;;23.20;99.90;;;;;;8413506;28;19924;-72
2023/06/22 14:23:34;;;;;;;;;;;23.20;99.90;;;;;;8419945;28;19977;-72
2023/06/22 14:27:35;;;;;;;;;;;23.20;99.90;;;;;;8419820;28;20284;-72
2023/06/22 14:31:37;;;;;;;;;;;23.20;99.90;;;;;;8416241;28;19924;-72
2023/06/22 14:35:39;;;;;;;;;;;23.20;99.90;;;;;;8430456;28;19928;-72
2023/06/22 14:39:40;;;;;;;;;;;23.20;99.90;;;;;;8422035;28;20581;-73
2023/06/22 14:43:49;;;;;;;;;;;23.10;99.90;;;;;;8418923;28;19949;-74
2023/06/22 14:47:51;;;;;;;;;;;23.00;99.90;;;;;;8396695;28;19932;-72
2023/06/22 14:51:55;;;;;;;;;;;23.00;99.90;;;;;;8409749;28;22367;-72
2023/06/22 14:55:57;;;;;;;;;;;22.90;99.90;;;;;;8421515;28;19926;-73
2023/06/22 14:59:59;;;;;;;;;;;22.80;99.90;;;;;;8394488;28;19936;-72
2023/06/22 15:04:01;;;;;;;;;;;22.80;99.90;;;;;;8405976;28;19932;-72
2023/06/22 15:08:02;;;;;;;;;;;22.70;99.90;;;;;;8409360;28;19928;-72
2023/06/22 15:12:07;;;;;;;;;;;22.70;99.90;;;;;;8421802;28;20313;-72
2023/06/22 15:16:09;;;;;;;;;;;22.60;99.90;;;;;;8406108;28;20559;-72
2023/06/22 15:20:11;;;;;;;;;;;22.50;99.90;;;;;;8411361;28;19974;-72
2023/06/22 15:24:12;;;;;;;;;;;22.40;99.90;;;;;;8411172;28;20559;-72
2023/06/22 15:28:14;;;;;;;;;;;22.40;99.90;;;;;;8395500;28;20322;-72
2023/06/22 15:32:16;;;;;;;;;;;22.30;99.90;;;;;;8416458;28;20354;-72
2023/06/22 15:36:18;;;;;;;;;;;22.20;99.90;;;;;;8414974;28;19924;-72
2023/06/22 15:40:20;;;;;;;;;;;22.10;99.90;;;;;;8403278;28;20336;-73
2023/06/22 15:44:22;;;;;;;;;;;22.10;99.90;;;;;;8406982;28;19924;-73
2023/06/22 15:48:24;;;;;;;;;;;22.10;99.90;;;;;;8414009;28;19970;-72
2023/06/22 15:52:25;;;;;;;;;;;22.10;99.90;;;;;;8412897;28;19931;-73
2023/06/22 15:56:27;;;;;;;;;;;22.10;99.90;;;;;;8403982;28;20283;-72
2023/06/22 16:00:29;;;;;;;;;;;22.00;99.90;;;;;;8402156;28;20419;-72
2023/06/22 16:04:31;;;;;;;;;;;22.00;99.90;;;;;;8408921;28;20471;-73
2023/06/22 16:08:33;;;;;;;;;;;22.00;99.90;;;;;;8417104;28;19970;-72
2023/06/22 16:12:35;;;;;;;;;;;21.90;99.90;;;;;;8411171;28;19940;-72
2023/06/22 16:16:37;;;;;;;;;;;21.90;99.90;;;;;;8388963;28;20437;-72
2023/06/22 16:20:38;;;;;;;;;;;21.80;99.90;;;;;;8412243;28;20279;-72
2023/06/22 16:24:40;;;;;;;;;;;21.80;99.90;;;;;;8416247;27;19935;-72
2023/06/22 16:28:42;;;;;;;;;;;21.80;99.90;;;;;;8417382;28;19932;-72
2023/06/22 16:32:51;;;;;;;;;;;21.80;99.90;;;;;;8424939;28;19996;-72
2023/06/22 16:36:53;;;;;;;;;;;21.80;99.90;;;;;;8402380;28;19950;-72
2023/06/22 16:40:54;;;;;;;;;;;21.80;99.90;;;;;;8421223;28;20303;-72
2023/06/22 16:44:56;;;;;;;;;;;21.80;99.90;;;;;;8396399;28;19994;-72
2023/06/22 16:48:58;;;;;;;;;;;21.80;99.90;;;;;;8416138;28;19928;-72
2023/06/22 16:52:59;;;;;;;;;;;21.80;99.90;;;;;;8408945;28;19935;-72
2023/06/22 16:57:02;;;;;;;;;;;21.80;99.90;;;;;;8407337;28;19932;-72
2023/06/22 17:01:08;;;;;;;;;;;21.80;99.90;;;;;;8421643;28;19924;-72
2023/06/22 17:05:10;;;;;;;;;;;21.80;99.90;;;;;;8403856;28;19924;-72
2023/06/22 17:09:13;;;;;;;;;;;21.80;99.90;;;;;;8382409;28;19990;-72
2023/06/22 17:13:15;;;;;;;;;;;21.70;99.90;;;;;;8435201;28;20263;-73
2023/06/22 17:17:17;;;;;;;;;;;21.60;99.90;;;;;;8407405;28;19928;-73
2023/06/22 17:21:22;;;;;;;;;;;21.60;99.90;;;;;;8397362;28;19928;-72
2023/06/22 17:25:27;;;;;;;;;;;21.50;99.90;;;;;;8396251;28;20364;-72
2023/06/22 17:29:33;;;;;;;;;;;21.50;99.90;;;;;;8413048;28;19951;-73
2023/06/22 17:33:34;;;;;;;;;;;21.40;99.90;;;;;;8408740;28;20025;-72
2023/06/22 17:37:46;;;;;;;;;;;21.40;99.90;;;;;;8411294;28;19980;-72
2023/06/22 17:41:49;;;;;;;;;;;21.40;99.90;;;;;;8417157;28;19931;-72
2023/06/22 17:45:51;;;;;;;;;;;21.40;99.90;;;;;;8411668;28;20406;-72
2023/06/22 17:50:02;;;;;;;;;;;21.40;99.90;;;;;;8392237;28;19928;-72
2023/06/22 17:54:04;;;;;;;;;;;21.40;99.90;;;;;;8417359;28;19936;-73
2023/06/22 17:58:06;;;;;;;;;;;21.30;99.90;;;;;;8389910;28;19924;-72
2023/06/22 18:02:10;;;;;;;;;;;21.30;99.90;;;;;;8425805;28;20237;-73
2023/06/22 18:06:12;;;;;;;;;;;21.20;99.90;;;;;;8408013;28;19946;-72
2023/06/22 18:10:13;;;;;;;;;;;21.30;99.90;;;;;;8399126;28;19928;-72
2023/06/22 18:14:19;;;;;;;;;;;21.30;99.90;;;;;;8428437;28;19928;-72
2023/06/22 18:18:23;;;;;;;;;;;21.20;99.90;;;;;;8416703;28;19931;-72
2023/06/22 18:22:25;;;;;;;;;;;21.30;99.90;;;;;;8434654;28;19949;-73
2023/06/22 18:26:27;;;;;;;;;;;21.20;99.90;;;;;;8432884;28;19931;-72
2023/06/22 18:30:29;;;;;;;;;;;21.20;99.90;;;;;;8430572;28;19924;-72
2023/06/22 18:34:32;;;;;;;;;;;21.20;99.90;;;;;;8423130;28;19924;-73
2023/06/22 18:38:34;;;;;;;;;;;21.20;99.90;;;;;;8418629;28;19928;-72
2023/06/22 18:42:40;;;;;;;;;;;21.20;99.90;;;;;;8434088;28;19928;-73
2023/06/22 18:46:42;;;;;;;;;;;21.20;99.90;;;;;;8419594;28;20303;-72
2023/06/22 18:50:44;;;;;;;;;;;21.10;99.90;;;;;;8430500;28;19934;-73
2023/06/22 18:54:50;;;;;;;;;;;21.10;99.90;;;;;;8396018;28;19928;-72
2023/06/22 18:59:01;;;;;;;;;;;21.00;99.90;;;;;;8415042;28;19924;-73
2023/06/22 19:03:02;;;;;;;;;;;21.00;99.90;;;;;;8432944;27;19932;-72
2023/06/22 19:07:08;;;;;;;;;;;20.90;99.90;;;;;;8415020;28;19930;-73
2023/06/22 19:11:13;;;;;;;;;;;20.80;99.90;;;;;;8415462;28;19925;-73
2023/06/22 19:15:15;;;;;;;;;;;20.80;99.90;;;;;;8425184;28;19928;-72
2023/06/22 19:19:17;;;;;;;;;;;20.70;99.90;;;;;;8393992;28;19924;-72
2023/06/22 19:23:28;;;;;;;;;;;20.60;99.90;;;;;;8415010;28;19928;-72
2023/06/22 19:27:30;;;;;;;;;;;20.60;99.90;;;;;;8401210;28;19928;-72
2023/06/22 19:31:31;;;;;;;;;;;20.60;99.90;;;;;;8427395;28;19979;-72
2023/06/22 19:35:33;;;;;;;;;;;20.60;99.90;;;;;;8439707;28;19931;-72
2023/06/22 19:39:36;;;;;;;;;;;20.60;99.90;;;;;;8425591;28;19935;-72
2023/06/22 19:43:38;;;;;;;;;;;20.60;99.90;;;;;;8430488;28;19943;-72
2023/06/22 19:47:40;;;;;;;;;;;20.60;99.90;;;;;;8422367;28;20265;-72
2023/06/22 19:51:41;;;;;;;;;;;20.50;99.90;;;;;;8430788;28;19929;-72
2023/06/22 19:55:44;;;;;;;;;;;20.50;99.90;;;;;;8412289;28;19928;-72
2023/06/22 19:59:48;;;;;;;;;;;20.50;99.90;;;;;;8416738;28;19924;-72
2023/06/22 20:03:50;;;;;;;;;;;20.50;99.90;;;;;;8396538;28;20281;-73
2023/06/22 20:07:52;;;;;;;;;;;20.50;99.90;;;;;;8413624;28;20410;-72
2023/06/22 20:11:57;;;;;;;;;;;20.40;99.90;;;;;;8424822;28;19982;-72
2023/06/22 20:16:07;;;;;;;;;;;20.40;99.90;;;;;;8421933;28;19924;-72
2023/06/22 20:20:17;;;;;;;;;;;20.40;99.90;;;;;;8415673;28;19924;-72
2023/06/22 20:24:19;;;;;;;;;;;20.40;99.90;;;;;;8431332;28;19924;-73
2023/06/22 20:28:24;;;;;;;;;;;20.30;99.90;;;;;;8419902;28;19924;-72
2023/06/22 20:32:26;;;;;;;;;;;20.30;99.90;;;;;;8417107;28;20283;-72
2023/06/22 20:36:28;;;;;;;;;;;20.30;99.90;;;;;;8397146;28;19976;-71
2023/06/22 20:40:29;;;;;;;;;;;20.30;99.90;;;;;;8415217;28;19947;-72
2023/06/22 20:44:32;;;;;;;;;;;20.20;99.90;;;;;;8402154;28;20014;-72
2023/06/22 20:48:34;;;;;;;;;;;20.20;99.90;;;;;;8424129;28;20304;-72
2023/06/22 20:52:41;;;;;;;;;;;20.10;99.90;;;;;;8425676;28;19929;-72
2023/06/22 20:56:44;;;;;;;;;;;20.10;99.90;;;;;;8401990;28;19929;-72
2023/06/22 21:00:46;;;;;;;;;;;20.00;99.90;;;;;;8400927;28;19924;-72
2023/06/22 21:04:48;;;;;;;;;;;20.00;99.90;;;;;;8417801;28;19924;-72
2023/06/22 21:08:50;;;;;;;;;;;19.90;99.90;;;;;;8420050;28;20458;-72
2023/06/22 21:12:52;;;;;;;;;;;19.90;99.90;;;;;;8416577;28;19928;-72
2023/06/22 21:16:54;;;;;;;;;;;19.80;99.90;;;;;;8411951;28;19928;-72
2023/06/22 21:20:56;;;;;;;;;;;19.70;99.90;;;;;;8405765;28;19932;-72
2023/06/22 21:25:08;;;;;;;;;;;19.60;99.90;;;;;;8414284;28;19925;-71
2023/06/22 21:29:09;;;;;;;;;;;19.60;99.90;;;;;;8396687;28;20383;-72
2023/06/22 21:33:11;;;;;;;;;;;19.50;99.90;;;;;;8419379;28;19928;-72
2023/06/22 21:37:13;;;;;;;;;;;19.50;99.90;;;;;;8410646;28;19924;-72
2023/06/22 21:41:14;;;;;;;;;;;19.50;99.90;;;;;;8420020;28;19970;-72
2023/06/22 21:45:16;;;;;;;;;;;19.50;99.90;;;;;;8390527;28;19932;-72
2023/06/22 21:49:18;;;;;;;;;;;19.50;99.90;;;;;;8415232;28;19924;-72
2023/06/22 21:53:20;;;;;;;;;;;19.50;99.90;;;;;;8413027;28;20057;-72
2023/06/22 21:57:26;;;;;;;;;;;19.50;99.90;;;;;;8410422;28;19928;-72
2023/06/22 22:01:27;;;;;;;;;;;19.50;99.90;;;;;;8400763;28;19970;-72
2023/06/22 22:05:31;;;;;;;;;;;19.40;99.90;;;;;;8428508;28;19925;-72
2023/06/22 22:09:33;;;;;;;;;;;19.40;99.90;;;;;;8433338;28;19928;-72
2023/06/22 22:13:36;;;;;;;;;;;19.40;99.90;;;;;;8432018;28;20391;-72
2023/06/22 22:17:38;;;;;;;;;;;19.40;99.90;;;;;;8393484;28;20375;-72
2023/06/22 22:21:40;;;;;;;;;;;19.30;99.90;;;;;;8413173;28;19946;-72
2023/06/22 22:25:41;;;;;;;;;;;19.30;99.90;;;;;;8403577;28;20642;-71
2023/06/22 22:29:44;;;;;;;;;;;19.30;99.90;;;;;;8422936;28;19931;-72
2023/06/22 22:33:46;;;;;;;;;;;19.20;99.90;;;;;;8421093;28;20390;-72
2023/06/22 22:37:47;;;;;;;;;;;19.20;99.90;;;;;;8412339;28;19935;-72
2023/06/22 22:41:49;;;;;;;;;;;19.20;99.90;;;;;;8407532;28;20313;-72
2023/06/22 22:45:51;;;;;;;;;;;19.20;99.90;;;;;;8399677;28;20677;-72
2023/06/22 22:49:52;;;;;;;;;;;19.20;99.90;;;;;;8430234;28;20398;-72
2023/06/22 22:53:54;;;;;;;;;;;19.10;99.90;;;;;;8419711;28;19928;-72
2023/06/22 22:57:56;;;;;;;;;;;19.10;99.90;;;;;;8415102;28;19928;-71
2023/06/22 23:01:57;;;;;;;;;;;19.10;99.90;;;;;;8386147;28;19931;-71
2023/06/22 23:05:59;;;;;;;;;;;19.00;99.90;;;;;;8437645;27;19939;-71
2023/06/22 23:10:01;;;;;;;;;;;19.00;99.90;;;;;;8406594;28;19932;-72
2023/06/22 23:14:02;;;;;;;;;;;19.00;99.90;;;;;;8412130;28;20018;-71
2023/06/22 23:18:04;;;;;;;;;;;18.90;99.90;;;;;;8411996;28;19928;-71
2023/06/22 23:22:06;;;;;;;;;;;18.90;99.90;;;;;;8425537;28;20051;-71
2023/06/22 23:26:07;;;;;;;;;;;18.90;99.90;;;;;;8406553;28;19924;-71
2023/06/22 23:30:09;;;;;;;;;;;19.00;99.90;;;;;;8423958;28;20333;-71
2023/06/22 23:34:11;;;;;;;;;;;18.90;99.90;;;;;;8450068;27;19931;-71
2023/06/22 23:38:13;;;;;;;;;;;18.90;99.90;;;;;;8418782;28;19924;-71
2023/06/22 23:42:14;;;;;;;;;;;18.90;99.90;;;;;;8402846;28;19928;-71
2023/06/22 23:46:16;;;;;;;;;;;18.80;99.90;;;;;;8410570;28;19971;-72